Time;durP1;ratioP1;P1;durP2;ratioP2;P2;SDS_P1;SDS_P2;PMS_P1;PMS_P2;Temp;Humidity;BMP_temperature;BMP_pressure;BME280_temperature;BME280_humidity;BME280_pressure;Samples;Min_cycle;Max_cycle;Signal;HPM_P1;HPM_P2
2022/03/04 00:02:27;;;;;;;26.13;13.57;;;;;;;-0.62;100.00;102211.28;10177221;29;20039;-79
2022/03/04 00:07:28;;;;;;;27.80;12.63;;;;;;;-0.85;100.00;102183.75;10214172;29;20128;-79
2022/03/04 00:12:29;;;;;;;32.88;13.65;;;;;;;-0.83;100.00;102217.78;10198279;29;20080;-78
2022/03/04 00:17:29;;;;;;;25.55;12.60;;;;;;;-0.83;100.00;102217.78;10214311;29;20064;-78
2022/03/04 00:22:30;;;;;;;28.83;12.88;;;;;;;-1.18;100.00;102156.22;10182879;29;20035;-78
2022/03/04 00:27:31;;;;;;;25.02;13.32;;;;;;;-1.07;100.00;102201.19;10213340;29;20043;-78
2022/03/04 00:32:31;;;;;;;32.30;14.40;;;;;;;-1.07;100.00;102223.66;10158275;29;20100;-79
2022/03/04 00:37:32;;;;;;;28.05;13.75;;;;;;;-1.08;100.00;102243.53;10174044;29;20036;-78
2022/03/04 00:42:32;;;;;;;28.20;13.35;;;;;;;-1.34;100.00;102201.94;10174780;29;20047;-78
2022/03/04 00:47:33;;;;;;;28.48;14.20;;;;;;;-1.33;100.00;102211.72;10185498;29;20067;-78
2022/03/04 00:52:34;;;;;;;37.30;15.60;;;;;;;-1.24;100.00;102237.88;10213192;29;20039;-78
2022/03/04 00:57:34;;;;;;;36.80;14.50;;;;;;;-1.37;100.00;102231.91;10181168;29;20495;-78
2022/03/04 01:02:35;;;;;;;31.52;15.88;;;;;;;-1.33;100.00;102245.00;10196756;29;20028;-79
2022/03/04 01:07:35;;;;;;;36.13;15.10;;;;;;;-1.35;100.00;102238.03;10212555;29;20483;-78
2022/03/04 01:12:36;;;;;;;35.63;15.98;;;;;;;-1.38;100.00;102243.75;10229906;29;20420;-78
2022/03/04 01:17:36;;;;;;;40.72;17.15;;;;;;;-1.40;100.00;102238.47;10212613;29;20476;-79
2022/03/04 01:22:37;;;;;;;36.42;16.38;;;;;;;-1.44;100.00;102251.41;10228808;29;20522;-78
2022/03/04 01:27:37;;;;;;;39.63;17.33;;;;;;;-1.49;100.00;102256.38;10212405;29;20032;-78
2022/03/04 01:32:38;;;;;;;39.15;17.00;;;;;;;-1.50;100.00;102268.16;10196491;29;20047;-78
2022/03/04 01:37:39;;;;;;;39.45;16.48;;;;;;;-1.55;100.00;102267.75;10228160;29;20071;-78
2022/03/04 01:42:39;;;;;;;41.28;17.67;;;;;;;-1.67;100.00;102252.66;10196158;29;20066;-77
2022/03/04 01:47:41;;;;;;;44.13;17.52;;;;;;;-1.68;100.00;102261.75;10180590;29;20127;-77
2022/03/04 01:52:42;;;;;;;46.28;18.50;;;;;;;-1.76;100.00;102242.69;10211537;29;20032;-77
2022/03/04 01:57:42;;;;;;;40.37;18.27;;;;;;;-1.80;100.00;102246.66;10195604;29;20040;-77
2022/03/04 02:02:43;;;;;;;39.58;16.60;;;;;;;-1.75;100.00;102255.22;10211463;29;20070;-77
2022/03/04 02:07:44;;;;;;;41.58;17.13;;;;;;;-1.77;100.00;102249.09;10210785;29;20035;-76
2022/03/04 02:12:44;;;;;;;44.00;20.10;;;;;;;-1.75;100.00;102260.63;10213151;29;20031;-77
2022/03/04 02:17:45;;;;;;;46.75;18.95;;;;;;;-2.12;100.00;102199.16;10218462;29;20040;-77
2022/03/04 02:22:45;;;;;;;39.93;18.20;;;;;;;-1.76;100.00;102266.97;10203153;29;20039;-77
2022/03/04 02:27:46;;;;;;;46.88;19.95;;;;;;;-1.75;100.00;102260.63;10217424;29;20419;-77
2022/03/04 02:32:46;;;;;;;49.97;19.42;;;;;;;-1.78;100.00;102269.81;10217950;29;20031;-76
2022/03/04 02:37:47;;;;;;;49.28;19.48;;;;;;;-1.77;100.00;102266.16;10232162;29;20036;-77
2022/03/04 02:42:47;;;;;;;47.30;20.00;;;;;;;-1.93;100.00;102231.56;10202489;29;20036;-77
2022/03/04 02:47:48;;;;;;;53.55;21.75;;;;;;;-2.08;100.00;102196.03;10217837;29;20068;-77
2022/03/04 02:52:48;;;;;;;53.05;20.80;;;;;;;-1.82;100.00;102230.59;10216581;29;20031;-76
2022/03/04 02:57:49;;;;;;;49.83;22.27;;;;;;;-1.73;100.00;102255.94;10217832;29;20040;-77
2022/03/04 03:02:49;;;;;;;48.83;19.90;;;;;;;-1.79;100.00;102249.22;10217157;29;20039;-77
2022/03/04 03:07:50;;;;;;;52.30;19.63;;;;;;;-1.84;100.00;102246.94;10216279;29;20050;-77
2022/03/04 03:12:51;;;;;;;49.13;20.85;;;;;;;-1.84;100.00;102240.69;10234825;29;20035;-77
2022/03/04 03:17:51;;;;;;;54.00;20.67;;;;;;;-1.75;100.00;102252.50;10201766;29;20123;-77
2022/03/04 03:22:52;;;;;;;54.72;20.50;;;;;;;-1.66;100.00;102243.56;10231183;29;20039;-76
2022/03/04 03:27:53;;;;;;;53.75;21.13;;;;;;;-1.62;100.00;102231.47;10232249;29;20036;-77
2022/03/04 03:32:53;;;;;;;50.70;19.20;;;;;;;-1.47;100.00;102243.59;10200325;29;20038;-76
2022/03/04 03:37:54;;;;;;;48.30;19.83;;;;;;;-1.39;100.00;102237.47;10226390;29;20067;-77
2022/03/04 03:42:54;;;;;;;50.60;20.40;;;;;;;-1.32;100.00;102240.47;10193930;29;20048;-78
2022/03/04 03:47:55;;;;;;;50.78;21.33;;;;;;;-1.36;100.00;102252.56;10176654;29;20029;-77
2022/03/04 03:52:55;;;;;;;51.20;20.40;;;;;;;-1.27;100.00;102257.09;10176376;29;20039;-77
2022/03/04 03:57:56;;;;;;;48.93;21.97;;;;;;;-1.26;100.00;102250.66;10229235;29;20038;-77
2022/03/04 04:02:56;;;;;;;44.90;19.13;;;;;;;-1.39;100.00;102234.75;10229905;29;20103;-75
2022/03/04 04:07:57;;;;;;;50.45;19.73;;;;;;;-1.19;100.00;102257.22;10230263;29;20040;-77
2022/03/04 04:12:57;;;;;;;52.17;20.13;;;;;;;-1.18;100.00;102258.91;10232161;29;20043;-75
2022/03/04 04:17:58;;;;;;;51.30;20.80;;;;;;;-1.20;100.00;102244.69;10214995;29;20112;-75
2022/03/04 04:22:58;;;;;;;43.20;20.67;;;;;;;-1.16;100.00;102259.63;10213964;29;20067;-75
2022/03/04 04:27:58;;;;;;;49.50;19.95;;;;;;;-1.11;100.00;102276.28;10213103;29;20039;-76
2022/03/04 04:32:59;;;;;;;47.45;20.23;;;;;;;-1.08;100.00;102267.88;10229633;29;20046;-76
2022/03/04 04:37:59;;;;;;;43.55;19.50;;;;;;;-1.09;100.00;102266.19;10212736;29;20052;-75
2022/03/04 04:43:00;;;;;;;42.10;18.00;;;;;;;-1.31;100.00;102225.94;10212918;29;20040;-75
2022/03/04 04:48:00;;;;;;;41.90;19.48;;;;;;;-1.14;100.00;102271.16;10213526;29;20047;-75
2022/03/04 04:53:01;;;;;;;45.00;20.20;;;;;;;-1.02;100.00;102291.63;10197561;29;20102;-75
2022/03/04 04:58:02;;;;;;;47.90;20.08;;;;;;;-0.95;100.00;102291.06;10228986;29;20180;-75
2022/03/04 05:03:02;;;;;;;40.10;19.02;;;;;;;-1.07;100.00;102274.16;10195798;29;20075;-75
2022/03/04 05:08:03;;;;;;;42.63;17.83;;;;;;;-1.06;100.00;102275.84;10229646;29;20088;-74
2022/03/04 05:13:03;;;;;;;39.30;18.40;;;;;;;-1.08;100.00;102270.56;10211416;29;20048;-76
2022/03/04 05:18:03;;;;;;;40.30;18.02;;;;;;;-1.00;100.00;102277.13;10212117;29;20400;-75
2022/03/04 05:23:04;;;;;;;37.30;17.17;;;;;;;-1.02;100.00;102283.53;10211192;29;20286;-75
2022/03/04 05:28:04;;;;;;;36.28;16.67;;;;;;;-0.99;100.00;102279.69;10228145;29;20036;-76
2022/03/04 05:33:05;;;;;;;40.70;18.50;;;;;;;-0.95;100.00;102281.13;10227212;29;20036;-75
2022/03/04 05:38:05;;;;;;;44.60;18.48;;;;;;;-0.92;100.00;102285.38;10211292;29;20056;-75
2022/03/04 05:43:07;;;;;;;43.78;18.17;;;;;;;-1.03;100.00;102271.00;10227216;29;20035;-75
2022/03/04 05:48:08;;;;;;;35.63;17.48;;;;;;;-0.89;100.00;102290.47;10214286;29;20074;-75
2022/03/04 05:53:08;;;;;;;40.97;18.15;;;;;;;-0.92;100.00;102288.94;10236677;29;20042;-75
2022/03/04 05:58:09;;;;;;;37.53;16.98;;;;;;;-0.82;100.00;102305.16;10203072;29;20031;-75
2022/03/04 06:03:10;;;;;;;47.40;19.20;;;;;;;-0.82;100.00;102291.63;10235183;29;20063;-75
2022/03/04 06:08:10;;;;;;;36.00;15.80;;;;;;;-0.95;100.00;102277.53;10235557;29;20431;-75
2022/03/04 06:13:11;;;;;;;41.33;17.17;;;;;;;-0.97;100.00;102287.66;10202227;29;20063;-76
2022/03/04 06:18:11;;;;;;;38.65;18.90;;;;;;;-0.94;100.00;102298.19;10218882;29;20027;-75
2022/03/04 06:23:13;;;;;;;38.28;18.38;;;;;;;-0.91;100.00;102289.78;10202247;29;20028;-75
2022/03/04 06:28:13;;;;;;;42.55;19.63;;;;;;;-0.87;100.00;102302.88;10217001;29;20403;-76
2022/03/04 06:38:34;;;;;;;38.53;17.52;;;;;;;-0.82;100.00;102306.00;10219304;29;20071;-75
2022/03/04 06:43:34;;;;;;;41.58;17.63;;;;;;;-1.09;100.00;102262.63;10232683;29;20451;-75
2022/03/04 06:48:35;;;;;;;41.53;17.33;;;;;;;-0.84;100.00;102293.63;10215135;29;20054;-75
2022/03/04 06:53:36;;;;;;;35.95;16.92;;;;;;;-0.72;100.00;102306.00;10198544;29;20028;-75
2022/03/04 06:58:36;;;;;;;34.35;16.98;;;;;;;-0.68;100.00;102312.81;10230398;29;20047;-75
2022/03/04 07:03:37;;;;;;;32.47;14.93;;;;;;;-0.64;100.00;102322.34;10198133;29;20047;-75
2022/03/04 07:08:37;;;;;;;29.90;16.25;;;;;;;-0.49;100.00;102324.59;10231911;29;20031;-75
2022/03/04 07:13:38;;;;;;;32.50;14.77;;;;;;;-0.45;100.00;102332.28;10214533;29;20040;-78
2022/03/04 07:18:38;;;;;;;36.95;14.70;;;;;;;-0.46;100.00;102335.97;10213395;29;20031;-76
2022/03/04 07:23:39;;;;;;;30.95;14.65;;;;;;;-1.10;100.00;102221.22;10197419;29;20124;-76
2022/03/04 07:28:39;;;;;;;26.83;14.82;;;;;;;-0.41;100.00;102327.44;10197090;29;20039;-76
2022/03/04 07:33:40;;;;;;;28.15;14.35;;;;;;;-0.28;100.00;102335.22;10197162;29;20095;-75
2022/03/04 07:38:40;;;;;;;32.30;15.43;;;;;;;-0.24;100.00;102332.06;10171271;29;1244992;-78
2022/03/04 07:43:41;;;;;;;29.88;13.48;;;;;;;-0.85;100.00;102235.13;10232083;29;20060;-75
2022/03/04 07:48:41;;;;;;;25.67;13.30;;;;;;;-0.29;100.00;102337.09;10215794;29;20046;-76
2022/03/04 07:53:42;;;;;;;30.73;14.38;;;;;;;-0.19;100.00;102331.63;10214383;29;20039;-75
2022/03/04 07:58:42;;;;;;;31.65;16.23;;;;;;;-0.02;100.00;102309.19;10183537;29;20063;-76
2022/03/04 08:03:43;;;;;;;31.65;17.05;;;;;;;0.11;100.00;102322.38;10198332;29;20032;-75
2022/03/04 08:08:43;;;;;;;35.03;17.30;;;;;;;0.24;100.00;102315.75;10200707;29;20248;-75
2022/03/04 08:13:44;;;;;;;26.92;14.32;;;;;;;0.25;100.00;102309.31;10212825;29;20488;-75
2022/03/04 08:18:44;;;;;;;28.45;16.00;;;;;;;0.18;100.00;102312.63;10214104;29;20044;-75
2022/03/04 08:23:45;;;;;;;32.42;15.95;;;;;;;0.17;100.00;102326.34;10228778;29;20039;-75
2022/03/04 08:28:45;;;;;;;29.10;15.30;;;;;;;0.20;100.00;102332.31;10195724;29;20067;-75
2022/03/04 08:33:47;;;;;;;28.98;14.40;;;;;;;0.23;100.00;102352.84;10193704;29;20049;-75
2022/03/04 08:38:48;;;;;;;28.17;15.13;;;;;;;0.33;100.00;102363.59;10228885;29;20580;-75
2022/03/04 08:43:50;;;;;;;28.67;15.18;;;;;;;0.51;100.00;102352.81;10212695;29;20040;-75
2022/03/04 08:48:51;;;;;;;29.75;14.15;;;;;;;0.60;100.00;102352.78;10212679;29;20052;-75
2022/03/04 08:53:53;;;;;;;28.50;15.52;;;;;;;0.65;100.00;102356.88;10204892;29;20043;-75
2022/03/04 08:58:53;;;;;;;29.40;14.82;;;;;;;0.66;100.00;102356.72;10192250;29;20032;-77
2022/03/04 09:03:54;;;;;;;30.65;14.25;;;;;;;0.66;100.00;102358.56;10210360;29;20032;-77
2022/03/04 09:08:54;;;;;;;24.27;14.32;;;;;;;0.75;100.00;102357.69;10195100;29;20051;-77
2022/03/04 09:13:54;;;;;;;26.63;14.10;;;;;;;0.79;100.00;102353.66;10211699;29;20032;-77
2022/03/04 09:18:55;;;;;;;24.63;13.65;;;;;;;1.02;100.00;102353.19;10192267;29;20043;-76
2022/03/04 09:23:56;;;;;;;24.60;12.82;;;;;;;1.18;100.00;102362.34;10179840;29;20036;-76
2022/03/04 09:28:56;;;;;;;25.13;12.93;;;;;;;1.20;100.00;102335.91;10209061;29;20044;-77
2022/03/04 09:33:57;;;;;;;27.05;13.68;;;;;;;1.52;100.00;102355.31;10210209;29;20440;-77
2022/03/04 09:38:58;;;;;;;26.10;13.63;;;;;;;1.78;100.00;102358.91;10210510;29;20051;-77
2022/03/04 09:43:58;;;;;;;23.08;12.50;;;;;;;1.95;100.00;102335.41;10194061;29;20047;-79
2022/03/04 09:48:58;;;;;;;22.08;11.95;;;;;;;2.44;100.00;102356.53;10194309;29;20044;-79
2022/03/04 09:53:59;;;;;;;25.35;12.10;;;;;;;2.71;100.00;102338.22;10209679;29;20035;-76
2022/03/04 09:59:00;;;;;;;19.63;11.48;;;;;;;3.13;100.00;102349.00;10210440;29;20042;-77
2022/03/04 10:04:01;;;;;;;20.38;11.35;;;;;;;3.43;100.00;102352.94;10209737;29;20114;-77
2022/03/04 10:37:56;;;;;;;19.95;11.50;;;;;;;5.25;100.00;102332.91;10070609;23;20082;-86
2022/03/04 10:43:01;;;;;;;20.23;11.88;;;;;;;5.28;100.00;102314.47;10098552;29;20045;-87
2022/03/04 10:48:08;;;;;;;20.83;11.68;;;;;;;5.73;100.00;102329.06;10050944;29;20053;-87
2022/03/04 10:53:08;;;;;;;17.83;10.77;;;;;;;5.89;100.00;102333.50;10070575;29;20116;-88
2022/03/04 10:58:23;;;;;;;16.90;10.13;;;;;;;5.12;100.00;102219.88;10083967;29;20116;-89
2022/03/04 11:03:25;;;;;;;18.63;11.20;;;;;;;5.90;100.00;102288.75;10053743;29;20169;-87
2022/03/04 11:08:26;;;;;;;21.17;12.45;;;;;;;6.02;100.00;102295.47;10060056;29;20037;-88
2022/03/04 11:13:29;;;;;;;20.60;12.35;;;;;;;6.39;100.00;102290.91;10062353;29;20056;-93
2022/03/04 11:18:30;;;;;;;20.27;11.90;;;;;;;6.22;100.00;102238.28;10064809;29;20029;-88
2022/03/04 11:23:33;;;;;;;22.35;13.60;;;;;;;6.37;100.00;102239.09;10061441;29;20032;-92
2022/03/04 11:28:43;;;;;;;24.85;13.48;;;;;;;6.51;100.00;102264.72;10064117;29;20024;-88
2022/03/04 11:33:46;;;;;;;21.85;12.18;;;;;;;6.84;100.00;102267.81;10084125;29;20553;-89
2022/03/04 11:38:47;;;;;;;21.27;12.05;;;;;;;7.47;100.00;102309.03;10069449;29;20396;-89
2022/03/04 11:44:10;;;;;;;17.95;10.23;;;;;;;6.56;100.00;102122.69;10105692;29;20135;-89
2022/03/04 11:49:31;;;;;;;18.15;10.90;;;;;;;7.75;100.00;102274.44;10122023;29;20037;-89
2022/03/04 11:54:32;;;;;;;16.15;10.13;;;;;;;7.52;100.00;102253.63;10120430;29;20045;-88
2022/03/04 11:59:32;;;;;;;18.13;9.80;;;;;;;7.69;100.00;102259.66;10121597;29;20131;-88
2022/03/04 12:04:34;;;;;;;19.52;9.75;;;;;;;8.27;100.00;102323.25;10089155;29;20393;-87
2022/03/04 12:09:35;;;;;;;16.80;9.60;;;;;;;8.02;99.62;102248.00;10090115;29;20096;-88
2022/03/04 12:14:36;;;;;;;14.45;8.82;;;;;;;8.12;100.00;102242.97;10067591;29;20132;-88
2022/03/04 12:19:36;;;;;;;17.00;9.00;;;;;;;8.08;97.63;102164.91;10128873;29;20091;-88
2022/03/04 12:24:37;;;;;;;15.68;9.23;;;;;;;9.35;94.70;102264.81;10082719;29;20033;-88
2022/03/04 12:29:49;;;;;;;16.17;8.55;;;;;;;9.70;91.94;102190.31;10067985;29;20484;-91
2022/03/04 12:34:52;;;;;;;12.27;7.93;;;;;;;10.60;86.96;102234.38;10097757;29;20505;-89
2022/03/04 12:39:53;;;;;;;13.18;8.60;;;;;;;10.84;85.31;102176.78;10098067;29;20534;-91
2022/03/04 12:44:54;;;;;;;17.35;9.05;;;;;;;11.24;81.38;102199.31;10106790;29;20071;-91
2022/03/04 12:49:55;;;;;;;12.77;8.55;;;;;;;11.13;82.18;102221.28;10090519;29;20127;-90
2022/03/04 12:55:06;;;;;;;12.65;9.32;;;;;;;11.28;82.46;102208.00;10075100;29;20132;-89
2022/03/04 13:00:07;;;;;;;14.55;9.50;;;;;;;11.49;81.82;102221.38;10089497;29;20032;-89
2022/03/04 13:05:07;;;;;;;13.00;8.70;;;;;;;10.93;80.28;102090.00;10105856;29;20091;-89
2022/03/04 13:10:08;;;;;;;15.02;9.43;;;;;;;11.61;77.88;102165.44;10089900;29;20032;-90
2022/03/04 13:15:10;;;;;;;13.13;9.27;;;;;;;12.59;78.18;102255.53;10104691;29;20039;-90
2022/03/04 13:20:11;;;;;;;13.68;9.25;;;;;;;11.81;74.54;102072.25;10086490;29;20414;-90
2022/03/04 13:25:11;;;;;;;12.40;8.32;;;;;;;12.16;74.65;102143.34;10080957;29;20036;-91
2022/03/04 13:30:12;;;;;;;13.40;8.48;;;;;;;12.74;75.29;102204.53;10080811;29;20041;-90
2022/03/04 13:35:15;;;;;;;13.88;8.57;;;;;;;12.31;72.98;102069.19;10099361;29;20124;-91
2022/03/04 13:40:19;;;;;;;11.02;8.52;;;;;;;13.48;71.19;102205.84;10104361;29;20052;-92
2022/03/04 13:45:44;;;;;;;12.70;8.13;;;;;;;12.35;71.34;102075.06;10119811;29;20032;-91
2022/03/04 13:50:48;;;;;;;12.80;8.32;;;;;;;11.64;71.92;102060.19;10090519;29;20103;-88
2022/03/04 13:55:57;;;;;;;12.43;7.68;;;;;;;12.08;71.16;102129.84;10105035;29;20032;-91
2022/03/04 14:01:21;;;;;;;11.65;8.45;;;;;;;12.61;73.56;102150.31;10089683;29;20084;-93
2022/03/04 14:06:25;;;;;;;12.18;7.10;;;;;;;12.84;69.98;102116.38;10088121;29;20021;-91
2022/03/04 14:11:25;;;;;;;10.88;7.70;;;;;;;13.06;68.49;102087.03;10062531;29;20033;-89
2022/03/04 14:16:28;;;;;;;12.38;7.95;;;;;;;13.47;68.70;102154.34;10084870;29;20021;-90
2022/03/04 14:21:29;;;;;;;12.30;7.40;;;;;;;12.71;68.18;102085.13;10111593;29;20039;-91
2022/03/04 14:26:29;;;;;;;12.20;7.53;;;;;;;13.49;68.10;102174.31;10096002;29;20037;-91
2022/03/04 14:31:30;;;;;;;11.98;8.20;;;;;;;12.16;68.81;102043.94;10095042;29;20025;-90
2022/03/04 14:36:30;;;;;;;11.73;8.13;;;;;;;12.59;69.20;102094.44;10095499;29;20031;-90
2022/03/04 14:41:31;;;;;;;10.52;6.88;;;;;;;13.11;69.23;102161.78;10094934;29;20080;-91
2022/03/04 14:46:34;;;;;;;12.90;6.85;;;;;;;13.09;67.45;102102.31;10125401;29;20453;-89
2022/03/04 14:51:40;;;;;;;12.43;7.10;;;;;;;12.69;67.63;102089.16;10124629;29;20092;-89
2022/03/04 14:56:40;;;;;;;12.07;7.03;;;;;;;12.70;66.60;102083.41;10093465;29;20033;-88
2022/03/04 15:01:41;;;;;;;9.70;6.75;;;;;;;12.89;66.95;102125.59;10104339;29;20028;-90
2022/03/04 15:06:41;;;;;;;8.73;6.47;;;;;;;13.03;67.33;102164.91;10073138;29;20036;-90
2022/03/04 15:11:44;;;;;;;9.15;5.80;;;;;;;12.61;65.63;102166.88;10058739;29;20048;-88
2022/03/04 15:16:44;;;;;;;7.38;4.93;;;;;;;11.44;66.60;102075.03;10087358;29;20036;-90
2022/03/04 15:21:45;;;;;;;8.63;5.60;;;;;;;10.96;67.78;102133.66;10089751;29;20495;-88
2022/03/04 15:26:45;;;;;;;11.77;6.43;;;;;;;10.70;69.85;102098.91;10092143;29;20063;-88
2022/03/04 15:31:46;;;;;;;10.85;5.68;;;;;;;10.08;70.56;102080.28;10102662;29;20033;-88
2022/03/04 15:36:50;;;;;;;11.23;5.45;;;;;;;9.61;71.59;102049.47;10052593;29;20029;-89
2022/03/04 15:41:51;;;;;;;12.43;6.10;;;;;;;10.15;72.25;102102.28;10071037;29;20064;-88
2022/03/04 15:46:52;;;;;;;9.90;5.20;;;;;;;10.36;70.87;102149.81;10040328;29;20037;-88
2022/03/04 15:51:53;;;;;;;9.02;5.40;;;;;;;8.91;71.38;102087.75;10093802;29;20036;-89
2022/03/04 15:56:54;;;;;;;8.43;5.57;;;;;;;8.59;73.44;102171.81;10121238;29;20071;-89
2022/03/04 16:01:55;;;;;;;11.38;5.78;;;;;;;7.32;75.20;102020.63;10106526;29;20029;-90
2022/03/04 16:06:55;;;;;;;8.98;6.35;;;;;;;6.76;77.86;102105.59;10074408;29;20549;-88
2022/03/04 16:11:56;;;;;;;15.63;5.82;;;;;;;5.63;82.28;102065.16;10054433;29;20133;-88
2022/03/04 16:16:57;;;;;;;12.95;6.40;;;;;;;5.46;85.90;102121.06;10070263;29;20088;-87
2022/03/04 16:21:57;;;;;;;10.30;5.70;;;;;;;4.90;89.25;102110.59;10050710;29;20070;-89
2022/03/04 16:26:59;;;;;;;7.90;5.35;;;;;;;5.59;92.43;102257.81;10050569;29;20512;-87
2022/03/04 16:32:00;;;;;;;10.20;6.63;;;;;;;5.22;96.06;102202.19;10049146;29;20036;-88
2022/03/04 16:37:01;;;;;;;12.35;6.25;;;;;;;4.49;97.11;102107.41;10090250;29;20031;-87
2022/03/04 16:42:02;;;;;;;11.85;6.03;;;;;;;4.50;98.58;102155.44;10065161;29;20056;-87
2022/03/04 16:47:04;;;;;;;10.85;5.10;;;;;;;4.69;100.00;102200.47;10080376;29;20044;-90
2022/03/04 16:52:04;;;;;;;11.65;6.15;;;;;;;4.61;100.00;102232.25;10072540;29;20107;-88
2022/03/04 16:57:07;;;;;;;14.02;5.95;;;;;;;4.21;100.00;102190.56;10073177;29;20127;-91
2022/03/04 17:02:08;;;;;;;9.15;5.45;;;;;;;4.16;100.00;102222.16;10082228;29;20124;-87
2022/03/04 17:07:10;;;;;;;11.65;6.32;;;;;;;3.26;100.00;102106.25;10040182;29;20493;-87
2022/03/04 17:12:12;;;;;;;11.23;4.95;;;;;;;3.25;100.00;102131.81;10067314;29;20029;-87
2022/03/04 17:17:13;;;;;;;9.90;4.60;;;;;;;3.44;100.00;102202.16;10087415;29;20048;-87
2022/03/04 17:22:14;;;;;;;10.02;5.35;;;;;;;3.14;100.00;102181.13;10100600;29;20064;-86
2022/03/04 17:27:17;;;;;;;6.85;4.45;;;;;;;3.44;100.00;102245.72;10079393;29;20075;-86
2022/03/04 17:32:18;;;;;;;6.78;3.80;;;;;;;2.90;100.00;102191.03;10079819;29;20125;-87
2022/03/04 17:37:18;;;;;;;8.40;5.05;;;;;;;2.77;100.00;102194.28;10064217;29;20107;-87
2022/03/04 17:42:19;;;;;;;8.82;4.60;;;;;;;1.96;100.00;102091.78;10063123;29;20053;-86
2022/03/04 17:47:20;;;;;;;7.93;4.68;;;;;;;1.67;100.00;102095.81;10048885;29;20037;-87
2022/03/04 17:52:20;;;;;;;9.05;4.82;;;;;;;1.59;100.00;102088.50;10048736;29;20025;-87
2022/03/04 17:57:21;;;;;;;8.23;3.88;;;;;;;2.07;100.00;102180.25;10063943;29;20058;-86
2022/03/04 18:02:22;;;;;;;6.03;3.28;;;;;;;2.25;100.00;102210.03;10083039;29;20431;-86
2022/03/04 18:07:22;;;;;;;4.57;2.55;;;;;;;1.61;100.00;102124.47;10101787;29;20041;-87
2022/03/04 18:12:23;;;;;;;5.28;2.83;;;;;;;2.03;100.00;102239.53;10086579;29;20113;-87
2022/03/04 18:17:23;;;;;;;5.80;2.38;;;;;;;1.41;100.00;102153.75;10091349;29;20057;-87
2022/03/04 18:22:24;;;;;;;7.00;3.72;;;;;;;1.91;100.00;102252.53;10075145;29;20043;-88
2022/03/04 18:27:24;;;;;;;5.95;2.97;;;;;;;0.86;100.00;102082.75;10081658;29;20083;-87
2022/03/04 18:32:25;;;;;;;9.07;3.72;;;;;;;2.09;100.00;102322.22;10085358;29;20036;-88
2022/03/04 18:37:25;;;;;;;4.97;3.15;;;;;;;1.77;100.00;102270.28;10066891;29;20028;-90
2022/03/04 18:42:26;;;;;;;5.80;2.80;;;;;;;1.18;100.00;102177.03;10081364;29;20101;-89
2022/03/04 18:47:26;;;;;;;6.82;3.05;;;;;;;1.19;100.00;102213.97;10073690;29;20096;-88
2022/03/04 18:52:27;;;;;;;6.55;3.33;;;;;;;1.07;100.00;102194.41;10093621;29;20112;-89
2022/03/04 18:57:28;;;;;;;5.57;3.20;;;;;;;0.97;100.00;102199.94;10069925;29;20487;-90
2022/03/04 19:02:28;;;;;;;5.60;3.88;;;;;;;1.19;100.00;102254.66;10081031;29;20040;-89
2022/03/04 19:07:29;;;;;;;8.55;4.25;;;;;;;0.63;100.00;102191.69;10062431;29;20088;-87
2022/03/04 19:12:29;;;;;;;7.45;3.80;;;;;;;1.08;100.00;102285.63;10100478;29;20608;-89
2022/03/04 19:17:30;;;;;;;6.03;3.65;;;;;;;0.18;100.00;102171.81;10091704;29;20024;-87
2022/03/04 19:22:31;;;;;;;8.85;4.60;;;;;;;0.33;100.00;102233.56;10103821;29;20060;-87
2022/03/04 19:27:32;;;;;;;8.38;4.63;;;;;;;0.51;100.00;102258.81;10106097;29;20060;-88
2022/03/04 19:32:34;;;;;;;5.93;3.75;;;;;;;-0.29;100.00;102177.41;10088802;29;20068;-87
2022/03/04 19:37:35;;;;;;;6.80;4.03;;;;;;;0.09;100.00;102243.16;10091184;29;20028;-87
2022/03/04 19:42:36;;;;;;;6.95;4.22;;;;;;;-0.24;100.00;102210.28;10208137;23;20054;-88
2022/03/04 19:47:37;;;;;;;9.30;4.22;;;;;;;-0.62;100.00;102144.53;10248874;28;20046;-88
2022/03/04 19:52:37;;;;;;;8.82;4.40;;;;;;;-0.27;100.00;102199.75;10248506;28;20027;-87
2022/03/04 19:57:38;;;;;;;9.38;4.68;;;;;;;0.00;100.00;102265.72;10248315;28;20054;-87
2022/03/04 20:02:41;;;;;;;7.43;4.70;;;;;;;-0.17;100.00;102255.69;10232337;28;20118;-88
2022/03/04 20:07:42;;;;;;;7.53;3.85;;;;;;;0.08;100.00;102314.53;10231760;28;20026;-87
2022/03/04 20:12:44;;;;;;;7.43;4.32;;;;;;;-0.57;100.00;102235.19;10247960;28;20031;-87
2022/03/04 20:17:46;;;;;;;9.27;5.45;;;;;;;-0.85;100.00;102197.25;10265125;28;20030;-88
2022/03/04 20:22:46;;;;;;;6.70;3.83;;;;;;;-0.08;100.00;102334.16;10231419;28;20398;-87
2022/03/04 20:27:50;;;;;;;11.02;3.95;;;;;;;-1.02;100.00;102202.44;10263758;28;20034;-87
2022/03/04 20:32:50;;;;;;;8.88;4.13;;;;;;;-0.86;100.00;102233.44;10246804;28;20475;-88
2022/03/04 20:37:51;;;;;;;8.50;4.40;;;;;;;-1.22;100.00;102217.84;10233758;28;20042;-88
2022/03/04 20:42:52;;;;;;;7.82;4.53;;;;;;;-0.88;100.00;102252.50;10190288;29;20057;-87
2022/03/04 20:47:52;;;;;;;11.13;5.50;;;;;;;-0.97;100.00;102244.38;10199811;29;20042;-87
2022/03/04 20:52:53;;;;;;;6.85;3.90;;;;;;;-1.03;100.00;102251.25;10207854;29;20196;-87
2022/03/04 20:57:53;;;;;;;7.78;3.88;;;;;;;-1.09;100.00;102268.88;10212783;29;20035;-87
2022/03/04 21:02:57;;;;;;;7.90;4.07;;;;;;;-0.96;100.00;102267.75;10221355;29;20070;-87
2022/03/04 21:07:57;;;;;;;9.20;4.15;;;;;;;-1.50;100.00;102181.72;10192446;29;20064;-88
2022/03/04 21:12:58;;;;;;;7.03;4.15;;;;;;;-0.63;100.00;102350.25;10126614;29;20138;-86
2022/03/04 21:17:59;;;;;;;10.48;4.00;;;;;;;-1.34;100.00;102237.06;10141683;29;20028;-87
2022/03/04 21:23:00;;;;;;;8.95;4.72;;;;;;;-1.28;100.00;102247.25;10157415;29;20075;-87
2022/03/04 21:28:01;;;;;;;9.13;4.63;;;;;;;-1.22;100.00;102268.31;10141887;29;20083;-87
2022/03/04 21:33:01;;;;;;;10.77;4.25;;;;;;;-0.91;100.00;102335.72;10141581;29;20040;-86
2022/03/04 21:38:02;;;;;;;8.98;5.45;;;;;;;-1.56;100.00;102216.56;10141479;29;20461;-87
2022/03/04 21:43:02;;;;;;;9.55;5.13;;;;;;;-1.57;100.00;102215.72;10133523;29;20186;-87
2022/03/04 21:48:03;;;;;;;7.93;4.53;;;;;;;-1.15;100.00;102290.22;10133394;29;20064;-87
2022/03/04 21:53:04;;;;;;;8.45;5.13;;;;;;;-1.05;100.00;102307.31;10087050;29;20417;-87
2022/03/04 21:58:04;;;;;;;8.48;5.60;;;;;;;-1.85;100.00;102196.63;10101678;29;20072;-87
2022/03/04 22:03:05;;;;;;;13.93;5.60;;;;;;;-1.61;100.00;102230.50;10133136;29;20059;-87
2022/03/04 22:08:05;;;;;;;9.60;5.20;;;;;;;-1.29;100.00;102267.19;10125232;29;20392;-87
2022/03/04 22:13:06;;;;;;;10.77;4.93;;;;;;;-1.34;100.00;102253.25;10140704;29;20373;-87
2022/03/04 22:18:06;;;;;;;9.25;4.60;;;;;;;-1.88;100.00;102179.88;10172214;29;20028;-88
2022/03/04 22:23:07;;;;;;;9.95;5.03;;;;;;;-1.52;100.00;102240.44;10156787;29;20036;-88
2022/03/04 22:28:07;;;;;;;7.70;4.60;;;;;;;-1.21;100.00;102280.84;10140488;29;20028;-88
2022/03/04 22:33:08;;;;;;;10.63;5.03;;;;;;;-1.18;100.00;102296.75;10163248;29;20071;-87
2022/03/04 22:38:08;;;;;;;11.57;5.85;;;;;;;-1.27;100.00;102294.91;10132248;29;20172;-87
2022/03/04 22:43:09;;;;;;;9.45;5.32;;;;;;;-1.98;100.00;102179.88;10174730;29;20060;-88
2022/03/04 22:48:09;;;;;;;7.72;5.05;;;;;;;-1.76;100.00;102213.00;10186581;29;20439;-87
2022/03/04 22:53:10;;;;;;;13.43;6.07;;;;;;;-1.43;100.00;102293.63;10202153;29;20086;-87
2022/03/04 22:58:10;;;;;;;8.77;5.00;;;;;;;-1.61;100.00;102268.31;10201953;29;20032;-88
2022/03/04 23:08:31;;;;;;;11.23;5.53;;;;;;;-1.56;100.00;102284.94;10190947;29;20075;-88
2022/03/04 23:13:31;;;;;;;11.88;5.90;;;;;;;-2.06;100.00;102225.59;10217188;29;20032;-87
2022/03/04 23:18:32;;;;;;;13.50;6.50;;;;;;;-1.46;100.00;102330.88;10201375;29;20031;-87